x

Tillamook, Or - 85 Nm Wnw Of Tillamook, Or (46089) Wave Buoy

7:50pm - Fri 25th Jul 2014 All times are PDT. -7 hours from GMT.

  • Sig Wave height 2.6ft
  • Swell Direction
  • Peak Period 7s
  • Average Period 6s
  • Wind
    4mph, 7mph gusts
  • Sea Temp 66°f
  • Air Temp 62°f
  • Sea Pressure 1020.7mb
  • Tillamook, Or - 85 Nm Wnw Of Tillamook, Or
  • Tillamook, Or - 85 Nm Wnw Of Tillamook, Or

More Historic Weather Station data

Upgrade to MSW Pro to gain access to the past 30 days of data for over 8000 Wavebouys and Weather Stations around the globe.

Join Pro

Comparision Forecast

View Surf forecast
   
Fri 07/25 7:50pm 2.5ft 7s 6s 4 7 mph 1020.7mb 66f 62f
6:50pm 2.5ft 7s 6s 4
mph
1021mb 66f 63f
5:50pm 2.5ft 7s 6s 4 7 mph 1021.3mb 67f 63f
4:50pm 2.5ft 7s 6s 2 4 mph 1021.5mb 68f 64f
3:50pm 2.5ft 7s 6s 2 4 mph 1021.7mb 67f 63f
2:50pm 2.5ft 7s 5s 2 4 mph 1021.9mb 67f 63f
1:50pm 2.5ft 7s 5s  -  2 mph 1022mb 66f 62f
12:50pm 3.5ft 7s 6s 2 4 mph 1022mb 65f 62f
11:50am 3ft 7s 6s 2 4 mph 1021.8mb 65f 61f
10:50am 3.5ft 7s 6s 4 7 mph 1021.8mb 64f 62f
9:50am 3.5ft 7s 5s 4
mph
1021.8mb 63f 61f
8:50am 3.5ft 7s 5s 4
mph
1021.8mb 62f 61f
7:50am 3.5ft 7s 5s  -  2 mph 1021.9mb 62f 62f
6:50am 3.5ft 7s 6s 2 4 mph 1021.9mb 62f 60f
5:50am 3.5ft 7s 6s 2 4 mph 1021.9mb 62f 60f
4:50am 3.5ft 7s 6s 2
mph
1022mb 62f 59f
3:50am 4ft 8s 6s 4 7 mph 1022.3mb 62f 59f
2:50am 3.5ft 7s 6s 9
mph
1022.6mb 62f 59f
1:50am 4ft 8s 6s  -  2 mph 1022.9mb 62f 60f
12:50am 4.5ft 8s 6s 2
mph
1023.4mb 62f 60f
Thu 07/24 11:50pm 4.5ft 8s 6s 4 7 mph 1023.7mb 62f 59f
10:50pm 4.5ft 8s 6s 4 7 mph 1024mb 62f 59f
9:50pm 4.5ft 8s 6s 7 9 mph 1024.1mb 62f 61f
8:50pm 4.5ft 7s 6s 7 9 mph 1024mb 62f 61f
7:50pm 5ft 8s 6s 7 9 mph 1024.2mb 62f 61f
6:50pm 5ft 7s 6s 7 9 mph 1024.6mb 62f 61f
5:50pm 5.5ft 7s 6s 7 9 mph 1025mb 62f 61f
4:50pm 5.5ft 8s 6s 9 11 mph 1025.3mb 62f 61f
3:50pm 6ft 8s 6s 7 9 mph 1025.7mb 62f 61f
2:50pm 7ft 8s 6s 9 11 mph 1025.8mb 62f 61f
1:50pm 6.5ft 8s 6s 9 11 mph 1026mb 62f 61f
12:50pm 7ft 8s 6s 7 11 mph 1026mb 62f 61f
11:50am 7ft 8s 6s 9 13 mph 1025.6mb 62f 61f
10:50am 7.5ft 8s 6s 9 11 mph 1025.2mb 62f 61f
9:50am 8.5ft 8s 6s 13 18 mph 1024.7mb 62f 61f
8:50am 8ft 9s 6s 16 20 mph 1024.3mb 62f 60f
7:50am 8.5ft 9s 6s 13 20 mph 1023.5mb 62f 61f
6:50am 9.5ft 9s 7s 16 25 mph 1022.7mb 62f 61f
5:50am 9.5ft 9s 7s 13 20 mph 1022mb 62f 61f
4:50am 9.5ft 8s 6s 16 22 mph 1021.1mb 62f 61f
3:50am 10ft 9s 6s 18 22 mph 1020.3mb 62f 61f
2:50am 11.5ft 9s 7s 18 27 mph 1019.4mb 62f 61f
1:50am 12ft 9s 6s 18 25 mph 1018.6mb 62f 61f
12:50am 11ft 9s 6s 20 29 mph 1017.7mb 62f 61f
Wed 07/23 11:50pm 11.5ft 9s 6s 22 31 mph 1017.4mb 62f 61f
10:50pm 11ft 8s 6s 18 25 mph 1017.5mb 62f 60f
9:50pm 9ft 8s 6s 20 27 mph 1017.4mb 62f 60f
8:50pm 8.5ft 7s 6s 20 29 mph 1017mb 62f 61f
7:50pm 8ft 7s 6s 18 27 mph 1016.9mb 62f 60f
6:50pm 8ft 8s 5s 20 27 mph 1017.5mb 62f 59f
5:50pm 7ft 7s 5s 20 29 mph 1017.9mb 63f 60f
4:50pm 7ft 8s 5s 18 22 mph 1018.2mb 63f 61f
3:50pm 6ft 6s 5s 16 25 mph 1018mb 62f 62f
2:50pm 6.5ft 8s 5s 16 20 mph 1017.8mb 62f 61f
1:50pm 6.5ft 6s 6s 13 18 mph 1017.6mb 62f 62f
12:50pm 6ft 6s 6s 13 20 mph 1017.2mb 62f 61f
11:50am 5.5ft 8s 5s 13 20 mph 1017.2mb 62f 61f
10:50am 5.5ft 7s 5s 16 20 mph 1016.8mb 62f 61f
9:50am 5.5ft 6s 5s 13 18 mph 1016.6mb 62f 61f
8:50am 5ft 9s 5s 11 16 mph 1016.4mb 62f 61f
7:50am 5ft 9s 5s 13 18 mph 1015.9mb 63f 61f
6:50am 5ft 8s 5s 13 18 mph 1015.4mb 63f 61f
5:50am 5ft 8s 5s 16 20 mph 1015.2mb 63f 60f
4:50am 4.5ft 8s 5s 16 20 mph 1014.9mb 63f 60f
3:50am 5ft 8s 5s 16 20 mph 1014.8mb 64f 60f
2:50am 4.5ft 8s 5s 16 20 mph 1014.8mb 64f 61f
1:50am 5ft 8s 5s 13 18 mph 1014.7mb 64f 62f
12:50am 5ft 9s 5s 13 18 mph 1014.5mb 64f 62f
Tue 07/22 11:50pm 5ft 9s 5s 16 20 mph 1014.4mb 64f 63f
10:50pm 4.5ft 8s 5s 16 22 mph 1014.8mb 64f 63f
9:50pm 4.5ft 8s 5s 16 20 mph 1015.1mb 64f 63f
8:50pm 4ft 8s 5s 13 16 mph 1015.2mb 64f 62f
7:50pm 3.5ft 11s 5s 11 18 mph 1015.4mb 64f 63f
6:50pm 3.5ft 10s 5s 11 13 mph 1015.8mb 64f 63f
5:50pm 3.5ft 11s 5s 9 13 mph 1016.3mb 64f 62f
4:50pm 3ft 9s 5s 13 16 mph 1016.7mb 64f 63f
3:50pm 3ft 9s 5s 11 16 mph 1017.3mb 64f 63f
2:50pm 3ft 9s 6s 11 13 mph 1017.4mb 64f 63f
1:50pm 3ft 10s 6s 9 13 mph 1017.5mb 64f 63f
12:50pm 3ft 8s 6s 9 11 mph 1017.5mb 64f 63f
11:50am 3.5ft 11s 7s 7 9 mph 1017.5mb 64f 63f
10:50am 3ft 10s 8s 9 11 mph 1017.2mb 64f 63f
9:50am 3.5ft 11s 7s 4 7 mph 1017.1mb 63f 62f
8:50am 3.5ft 9s 7s 7 9 mph 1017.2mb 63f 61f
7:50am 3.5ft 9s 8s 9 11 mph 1016.9mb 63f 61f
6:50am 3.5ft 11s 8s 9 11 mph 1016.7mb 63f 61f
5:50am 3.5ft 11s 8s 7 9 mph 1016.4mb 63f 62f
4:50am 3.5ft 11s 8s 7 9 mph 1016.6mb 64f 62f
3:50am 3.5ft 11s 7s 7
mph
1017mb 64f 62f